Brookhaven, Mississippi
Current Conditions -  °F | °C
As of 5:53 PM on Sunday 21 Dec 2014 (Local Time) from KMCB Reporting Station
Overcast Overcast  
Wind Chill: 56°   Ceiling: 1800
Heat Index: 56°   Visibility: 10mi
Dew Point: 50°   Wind: 3mph
Humidity: 80%   Direction: 130°SE
Pressure: 29.99"   Gusts: NA
Location:  31.58°N, 90.44°W
Report Text: KMCB 212353Z AUTO 13003KT 10SM OVC018 13/10 A2999 RMK AO2 SLP152 T01330100 10150 20122 58006
Loading
Personal Weather Stations






























Interactive Weather Map New forecast layout! Learn more

10-Day Weather Forecast

Advertisements
Track Severe Weather on mobile